createdAt,value
2022-11-18T00:01:23.092Z,29.90
2022-11-18T00:03:53.623Z,33.17
2022-11-18T00:06:23.442Z,29.83
2022-11-18T00:08:51.955Z,36.05
2022-11-18T00:11:40.715Z,29.42
2022-11-18T00:14:20.394Z,35.03
2022-11-18T00:16:48.527Z,40.60
2022-11-18T00:19:18.902Z,34.05
2022-11-18T00:21:46.241Z,31.92
2022-11-18T00:24:13.449Z,34.63
2022-11-18T00:26:40.522Z,32.08
2022-11-18T00:29:10.905Z,34.75
2022-11-18T00:31:38.181Z,40.78
2022-11-18T00:34:05.587Z,38.72
2022-11-18T00:36:33.625Z,34.13
2022-11-18T00:39:00.917Z,38.05
2022-11-18T00:41:47.861Z,41.55
2022-11-18T00:44:15.392Z,40.45
2022-11-18T00:46:43.014Z,42.00
2022-11-18T00:49:10.306Z,38.22
2022-11-18T00:51:39.527Z,38.50
2022-11-18T00:54:06.848Z,41.83
2022-11-18T00:56:33.814Z,42.30
2022-11-18T00:59:01.156Z,40.25
2022-11-18T01:01:28.173Z,52.15
2022-11-18T01:03:55.547Z,48.35
2022-11-18T01:06:22.957Z,53.50
2022-11-18T01:08:50.561Z,52.53
2022-11-18T01:11:36.280Z,58.97
2022-11-18T01:14:03.642Z,47.85
2022-11-18T01:16:31.032Z,51.20
2022-11-18T01:18:58.534Z,51.35
2022-11-18T01:21:25.641Z,50.08
2022-11-18T01:23:53.666Z,54.78
2022-11-18T01:26:20.676Z,54.17
2022-11-18T01:28:47.930Z,52.15
2022-11-18T01:31:19.761Z,56.92
2022-11-18T01:33:47.514Z,53.65
2022-11-18T01:36:16.656Z,57.78
2022-11-18T01:38:44.136Z,56.97
2022-11-18T01:41:11.994Z,51.60
2022-11-18T01:43:52.959Z,54.95
2022-11-18T01:46:22.038Z,55.75
2022-11-18T01:48:54.114Z,51.08
2022-11-18T01:51:26.639Z,45.38
2022-11-18T01:54:00.394Z,50.83
2022-11-18T01:56:33.514Z,50.38
2022-11-18T01:59:10.087Z,49.20
2022-11-18T02:01:37.494Z,51.17
2022-11-18T02:04:05.756Z,51.22
2022-11-18T02:06:33.707Z,45.22
2022-11-18T02:09:01.711Z,48.10
2022-11-18T02:11:47.282Z,44.80
2022-11-18T02:14:14.644Z,47.70
2022-11-18T02:16:50.545Z,53.45
2022-11-18T02:19:39.325Z,51.30
2022-11-18T02:22:29.292Z,50.47
2022-11-18T02:25:15.253Z,50.45
2022-11-18T02:28:00.393Z,49.63
2022-11-18T02:30:33.772Z,56.27
2022-11-18T02:33:10.531Z,53.17
2022-11-18T02:35:43.602Z,56.50
2022-11-18T02:38:34.193Z,54.58
2022-11-18T02:41:10.943Z,58.83
2022-11-18T02:43:46.732Z,50.85
2022-11-18T02:46:20.751Z,62.13
2022-11-18T02:48:51.463Z,59.13
2022-11-18T02:51:23.760Z,52.75
2022-11-18T02:53:51.626Z,57.75
2022-11-18T02:56:21.429Z,51.35
2022-11-18T02:58:48.408Z,54.55
2022-11-18T03:01:20.917Z,46.95
2022-11-18T03:03:50.707Z,51.35
2022-11-18T03:06:35.572Z,50.42
2022-11-18T03:09:13.865Z,48.72
2022-11-18T03:11:47.076Z,48.72
2022-11-18T03:14:52.479Z,49.13
2022-11-18T03:17:39.023Z,46.88
2022-11-18T03:23:20.155Z,48.20
2022-11-18T03:25:56.002Z,51.05
2022-11-18T03:28:40.036Z,54.58
2022-11-18T03:31:28.186Z,47.35
2022-11-18T03:34:07.630Z,48.33
2022-11-18T03:36:40.683Z,56.58
2022-11-18T03:39:14.738Z,54.80
2022-11-18T03:41:46.510Z,58.50
2022-11-18T03:44:29.660Z,56.72
2022-11-18T03:47:06.985Z,57.92
2022-11-18T03:49:41.218Z,56.17
2022-11-18T03:52:13.401Z,60.22
2022-11-18T03:54:45.347Z,54.63
2022-11-18T03:57:20.287Z,55.35
2022-11-18T03:59:56.380Z,57.05
2022-11-18T04:02:28.169Z,56.53
2022-11-18T04:04:58.353Z,53.60
2022-11-18T04:07:57.302Z,53.38
2022-11-18T04:10:35.823Z,46.50
2022-11-18T04:13:44.317Z,56.75
2022-11-18T04:16:12.015Z,56.22
2022-11-18T04:18:39.033Z,58.10
2022-11-18T04:21:06.673Z,52.17
2022-11-18T04:23:33.657Z,50.28
2022-11-18T04:26:03.209Z,48.72
2022-11-18T04:28:33.242Z,54.75
2022-11-18T04:31:00.689Z,56.70
2022-11-18T04:33:32.319Z,48.58
2022-11-18T04:35:59.641Z,48.00
2022-11-18T04:38:26.802Z,52.10
2022-11-18T04:40:54.077Z,52.10
2022-11-18T04:43:21.035Z,51.70
2022-11-18T04:45:48.329Z,54.63
2022-11-18T04:48:16.167Z,51.05
2022-11-18T04:50:45.709Z,54.22
2022-11-18T04:53:12.747Z,52.40
2022-11-18T04:55:39.943Z,52.40
2022-11-18T04:58:06.931Z,46.17
2022-11-18T05:00:34.398Z,56.72
2022-11-18T05:03:01.359Z,48.72
2022-11-18T05:05:30.875Z,58.45
2022-11-18T05:07:57.815Z,61.88
2022-11-18T05:10:25.104Z,53.85
2022-11-18T05:12:52.658Z,51.28
2022-11-18T05:15:22.650Z,52.35
2022-11-18T05:17:50.236Z,67.10
2022-11-18T05:20:17.536Z,58.38
2022-11-18T05:22:44.640Z,55.90
2022-11-18T05:25:12.068Z,64.05
2022-11-18T05:27:39.768Z,58.47
2022-11-18T05:30:07.593Z,65.65
2022-11-18T05:32:34.707Z,48.70
2022-11-18T05:35:01.963Z,59.10
2022-11-18T05:37:28.921Z,55.67
2022-11-18T05:39:56.284Z,62.45
2022-11-18T05:42:41.836Z,62.47
2022-11-18T05:45:09.398Z,57.08
2022-11-18T05:47:56.325Z,60.70
2022-11-18T05:50:23.575Z,57.72
2022-11-18T05:52:50.699Z,72.10
2022-11-18T05:55:24.969Z,60.10
2022-11-18T05:57:54.371Z,71.50
2022-11-18T06:00:21.961Z,56.05
2022-11-18T06:02:51.921Z,67.65
2022-11-18T06:05:23.652Z,61.88
2022-11-18T06:07:50.676Z,67.00
2022-11-18T06:10:25.456Z,60.70
2022-11-18T06:12:57.672Z,62.80
2022-11-18T06:15:28.518Z,59.38
2022-11-18T06:18:03.517Z,65.00
2022-11-18T06:20:33.594Z,58.15
2022-11-18T06:23:01.966Z,62.30
2022-11-18T06:25:32.700Z,62.80
2022-11-18T06:28:02.389Z,69.10
2022-11-18T06:30:29.782Z,67.88
2022-11-18T06:32:56.761Z,58.53
2022-11-18T06:35:24.111Z,61.40
2022-11-18T06:37:51.035Z,59.00
2022-11-18T06:40:18.477Z,50.95
2022-11-18T06:43:04.148Z,49.83
2022-11-18T06:45:31.475Z,48.83
2022-11-18T06:48:00.913Z,48.13
2022-11-18T06:50:28.726Z,40.67
2022-11-18T06:52:56.090Z,39.20
2022-11-18T06:55:23.353Z,46.25
2022-11-18T06:57:50.283Z,43.33
2022-11-18T07:00:18.122Z,49.20
2022-11-18T07:02:45.100Z,45.85
2022-11-18T07:05:14.703Z,47.15
2022-11-18T07:07:42.501Z,45.88
2022-11-18T07:10:12.795Z,43.50
2022-11-18T07:12:42.134Z,47.10
2022-11-18T07:15:09.822Z,43.88
2022-11-18T07:17:36.915Z,41.05
2022-11-18T07:20:08.048Z,40.15
2022-11-18T07:22:35.091Z,41.95
2022-11-18T07:25:02.477Z,41.00
2022-11-18T07:27:29.487Z,38.85
2022-11-18T07:29:56.877Z,52.15
2022-11-18T07:32:23.904Z,45.70
2022-11-18T07:34:51.180Z,46.08
2022-11-18T07:37:18.152Z,46.38
2022-11-18T07:39:45.439Z,52.65
2022-11-18T07:42:14.705Z,48.17
2022-11-18T07:44:45.090Z,45.88
2022-11-18T07:47:12.359Z,46.53
2022-11-18T07:49:39.674Z,52.92
2022-11-18T07:52:09.005Z,45.60
2022-11-18T07:54:36.480Z,48.65
2022-11-18T07:57:03.527Z,57.00
2022-11-18T07:59:30.783Z,42.50
2022-11-18T08:01:57.884Z,41.97
2022-11-18T08:04:27.711Z,32.97
2022-11-18T08:06:54.743Z,35.50
2022-11-18T08:09:24.268Z,36.38
2022-11-18T08:11:51.344Z,32.75
2022-11-18T08:14:18.647Z,34.92
2022-11-18T08:16:45.705Z,28.40
2022-11-18T08:19:13.186Z,31.70
2022-11-18T08:21:40.201Z,34.90
2022-11-18T08:24:10.240Z,41.35
2022-11-18T08:26:37.237Z,33.30
2022-11-18T08:29:04.639Z,31.63
2022-11-18T08:31:31.787Z,32.20
2022-11-18T08:34:06.695Z,42.28
2022-11-18T08:36:37.507Z,35.85
2022-11-18T08:39:13.401Z,28.25
2022-11-18T08:41:44.280Z,29.25
2022-11-18T08:44:14.349Z,29.65
2022-11-18T08:46:42.353Z,30.58
2022-11-18T08:49:10.016Z,26.95
2022-11-18T08:51:40.001Z,31.25
2022-11-18T08:54:07.359Z,35.05
2022-11-18T08:56:34.433Z,38.50
2022-11-18T08:59:01.710Z,31.60
2022-11-18T09:01:28.782Z,34.75
2022-11-18T09:03:57.847Z,32.15
2022-11-18T09:06:25.362Z,29.05
2022-11-18T09:08:53.818Z,29.58
2022-11-18T09:11:26.116Z,29.10
2022-11-18T09:16:45.738Z,27.50
2022-11-18T09:19:45.571Z,30.25
2022-11-18T09:22:03.172Z,30.75
2022-11-18T09:24:30.575Z,33.60
2022-11-18T09:26:57.563Z,31.13
2022-11-18T09:29:27.724Z,27.67
2022-11-18T09:31:55.535Z,31.02
2022-11-18T09:34:23.674Z,28.90
2022-11-18T09:36:51.462Z,31.05
2022-11-18T09:39:19.091Z,32.45
2022-11-18T09:42:02.674Z,32.33
2022-11-18T09:44:51.395Z,30.13
2022-11-18T09:47:29.020Z,33.00
2022-11-18T09:50:33.997Z,29.13
2022-11-18T09:52:58.099Z,29.63
2022-11-18T09:55:28.841Z,28.60
2022-11-18T09:57:57.802Z,31.20
2022-11-18T10:00:32.072Z,33.38
2022-11-18T10:03:12.554Z,30.10
2022-11-18T10:05:57.798Z,30.00
2022-11-18T10:08:31.080Z,25.48
2022-11-18T10:11:15.220Z,20.48
2022-11-18T10:14:20.126Z,18.35
2022-11-18T10:16:56.596Z,16.90
2022-11-18T10:19:37.250Z,17.70
2022-11-18T10:22:25.925Z,14.10
2022-11-18T10:25:00.879Z,15.35
2022-11-18T10:27:39.402Z,14.10
2022-11-18T10:30:26.589Z,17.50
2022-11-18T10:33:04.286Z,15.52
2022-11-18T10:35:34.605Z,14.32
2022-11-18T10:38:16.093Z,17.83
2022-11-18T10:40:54.632Z,20.10
2022-11-18T10:43:45.525Z,21.77
2022-11-18T10:46:18.817Z,17.60
2022-11-18T10:48:47.468Z,20.27
2022-11-18T10:51:23.748Z,16.17
2022-11-18T10:53:51.258Z,19.02
2022-11-18T10:56:18.270Z,16.98
2022-11-18T10:58:50.332Z,17.73
2022-11-18T11:01:24.314Z,15.70
2022-11-18T11:04:20.317Z,12.55
2022-11-18T11:06:47.340Z,11.45
2022-11-18T11:09:14.612Z,15.10
2022-11-18T11:12:12.665Z,15.23
2022-11-18T11:14:50.958Z,13.02
2022-11-18T11:17:27.004Z,11.57
2022-11-18T11:20:13.210Z,11.88
2022-11-18T11:22:41.799Z,11.52
2022-11-18T11:29:20.307Z,14.52
2022-11-18T11:32:09.285Z,15.70
2022-11-18T11:34:58.035Z,13.50
2022-11-18T11:37:51.949Z,14.18
2022-11-18T11:40:55.080Z,15.07
2022-11-18T11:43:49.124Z,21.05
2022-11-18T11:46:28.494Z,18.33
2022-11-18T11:49:28.095Z,18.63
2022-11-18T11:52:02.702Z,18.02
2022-11-18T11:54:36.160Z,15.87
2022-11-18T11:57:12.262Z,15.05
2022-11-18T12:00:05.588Z,17.67
2022-11-18T12:03:08.061Z,15.43
2022-11-18T12:05:39.344Z,16.15
2022-11-18T12:08:11.841Z,18.08
2022-11-18T12:10:48.917Z,14.38
2022-11-18T12:13:34.195Z,15.18
2022-11-18T12:16:06.369Z,14.82
2022-11-18T12:18:55.461Z,15.60
2022-11-18T12:21:45.360Z,12.85
2022-11-18T12:24:18.487Z,13.23
2022-11-18T12:26:48.123Z,13.98
2022-11-18T12:29:21.405Z,15.80
2022-11-18T12:31:51.306Z,16.05
2022-11-18T12:34:33.816Z,16.77
2022-11-18T12:37:26.246Z,14.98
2022-11-18T12:40:04.589Z,16.08
2022-11-18T12:43:04.883Z,13.68
2022-11-18T12:45:41.023Z,15.23
2022-11-18T12:48:27.380Z,14.98
2022-11-18T12:51:00.959Z,14.18
2022-11-18T12:53:28.211Z,13.40
2022-11-18T12:55:56.110Z,15.38
2022-11-18T12:58:25.207Z,13.95
2022-11-18T13:01:06.400Z,11.85
2022-11-18T13:03:34.431Z,14.95
2022-11-18T13:06:06.320Z,14.35
2022-11-18T13:08:34.705Z,14.48
2022-11-18T13:11:33.499Z,14.02
2022-11-18T13:14:21.462Z,16.10
2022-11-18T13:17:07.562Z,16.45
2022-11-18T13:22:21.270Z,14.73
2022-11-18T13:24:50.904Z,12.93
2022-11-18T13:27:42.071Z,13.68
2022-11-18T13:30:14.315Z,15.38
2022-11-18T13:32:46.538Z,16.23
2022-11-18T13:35:17.603Z,18.15
2022-11-18T13:38:11.462Z,15.93
2022-11-18T13:41:04.461Z,14.30
2022-11-18T13:43:33.126Z,13.55
2022-11-18T13:46:02.511Z,12.73
2022-11-18T13:48:30.149Z,11.02
2022-11-18T13:51:00.232Z,13.45
2022-11-18T13:53:38.560Z,12.10
2022-11-18T13:56:07.790Z,15.63
2022-11-18T13:59:10.390Z,12.15
2022-11-18T14:01:28.693Z,13.88
2022-11-18T14:04:15.439Z,12.73
2022-11-18T14:06:42.927Z,11.27
2022-11-18T14:09:18.959Z,13.73
2022-11-18T14:11:59.242Z,9.43
2022-11-18T14:14:38.208Z,10.23
2022-11-18T14:17:22.484Z,8.77
2022-11-18T14:20:02.444Z,10.00
2022-11-18T14:22:34.468Z,9.70
2022-11-18T14:25:14.829Z,10.20
2022-11-18T14:27:58.060Z,9.52
2022-11-18T14:30:42.200Z,9.30
2022-11-18T14:33:15.430Z,10.70
2022-11-18T14:35:54.992Z,14.00
2022-11-18T14:41:14.169Z,12.43
2022-11-18T14:43:46.211Z,13.60
2022-11-18T14:46:19.616Z,14.18
2022-11-18T14:48:47.104Z,14.35
2022-11-18T14:51:15.831Z,18.77
2022-11-18T14:53:43.981Z,16.55
2022-11-18T14:56:23.061Z,17.25
2022-11-18T14:58:50.390Z,16.27
2022-11-18T15:01:17.538Z,14.70
2022-11-18T15:03:44.956Z,15.27
2022-11-18T15:06:16.913Z,16.90
2022-11-18T15:08:46.702Z,15.55
2022-11-18T15:11:16.517Z,16.38
2022-11-18T15:13:43.998Z,13.85
2022-11-18T15:16:17.505Z,13.52
2022-11-18T15:18:47.391Z,14.25
2022-11-18T15:21:17.960Z,13.00
2022-11-18T15:23:45.564Z,14.68
2022-11-18T15:26:21.005Z,13.77
2022-11-18T15:28:49.755Z,14.70
2022-11-18T15:31:17.323Z,16.58
2022-11-18T15:33:45.785Z,13.48
2022-11-18T15:36:18.628Z,15.45
2022-11-18T15:38:47.718Z,16.67
2022-11-18T15:41:28.768Z,21.15
2022-11-18T15:43:59.857Z,13.52
2022-11-18T15:46:30.753Z,19.02
2022-11-18T15:49:01.433Z,13.23
2022-11-18T15:51:30.238Z,15.70
2022-11-18T15:53:58.570Z,16.75
2022-11-18T15:56:29.320Z,16.25
2022-11-18T15:59:13.565Z,14.20
2022-11-18T16:01:43.763Z,21.63
2022-11-18T16:04:13.641Z,15.65
2022-11-18T16:06:43.673Z,13.95
2022-11-18T16:09:13.035Z,14.80
2022-11-18T16:11:58.666Z,16.73
2022-11-18T16:14:26.385Z,18.83
2022-11-18T16:16:55.439Z,15.20
2022-11-18T16:19:24.996Z,15.50
2022-11-18T16:21:55.623Z,19.60
2022-11-18T16:24:26.571Z,17.60
2022-11-18T16:26:54.012Z,22.08
2022-11-18T16:29:23.814Z,26.45
2022-11-18T16:31:52.854Z,18.27
2022-11-18T16:34:28.546Z,18.73
2022-11-18T16:36:58.026Z,19.00
2022-11-18T16:39:29.644Z,19.17
2022-11-18T16:42:06.786Z,14.93
2022-11-18T16:44:35.169Z,16.95
2022-11-18T16:47:12.248Z,18.95
2022-11-18T16:49:42.878Z,15.75
2022-11-18T16:52:10.324Z,15.63
2022-11-18T16:54:44.432Z,18.48
2022-11-18T16:57:12.582Z,14.88
2022-11-18T16:59:40.403Z,18.17
2022-11-18T17:02:07.784Z,15.80
2022-11-18T17:04:37.224Z,16.08
2022-11-18T17:07:06.955Z,15.55
2022-11-18T17:09:36.134Z,16.58
2022-11-18T17:12:03.818Z,17.65
2022-11-18T17:14:31.590Z,15.80
2022-11-18T17:16:59.199Z,20.75
2022-11-18T17:19:26.664Z,19.73
2022-11-18T17:21:53.857Z,20.58
2022-11-18T17:24:24.708Z,22.08
2022-11-18T17:26:52.816Z,23.95
2022-11-18T17:29:20.964Z,22.13
2022-11-18T17:31:49.116Z,22.55
2022-11-18T17:34:17.247Z,23.08
2022-11-18T17:36:44.629Z,22.42
2022-11-18T17:39:13.935Z,23.80
2022-11-18T17:42:00.011Z,23.90
2022-11-18T17:46:56.722Z,23.60
2022-11-18T17:49:24.778Z,23.83
2022-11-18T17:51:51.981Z,23.92
2022-11-18T17:54:21.117Z,24.77
2022-11-18T17:56:52.536Z,25.50
2022-11-18T17:59:21.960Z,21.88
2022-11-18T18:01:58.641Z,23.75
2022-11-18T18:04:26.873Z,24.30
2022-11-18T18:06:55.070Z,22.70
2022-11-18T18:09:26.898Z,27.17
2022-11-18T18:11:57.809Z,26.57
2022-11-18T18:14:25.597Z,27.90
2022-11-18T18:16:53.252Z,28.52
2022-11-18T18:19:22.844Z,27.63
2022-11-18T18:21:53.588Z,24.50
2022-11-18T18:24:22.210Z,25.10
2022-11-18T18:26:50.212Z,27.75
2022-11-18T18:29:17.881Z,28.52
2022-11-18T18:31:45.889Z,29.42
2022-11-18T18:34:13.353Z,30.08
2022-11-18T18:36:40.815Z,31.85
2022-11-18T18:39:08.965Z,27.55
2022-11-18T18:41:38.607Z,28.27
2022-11-18T18:44:06.564Z,31.55
2022-11-18T18:46:38.280Z,32.42
2022-11-18T18:49:20.648Z,28.75
2022-11-18T18:51:49.981Z,30.67
2022-11-18T18:54:20.429Z,38.47
2022-11-18T18:56:50.726Z,27.23
2022-11-18T18:59:18.561Z,33.08
2022-11-18T19:01:48.885Z,26.92
2022-11-18T19:04:18.311Z,32.35
2022-11-18T19:06:58.443Z,31.02
2022-11-18T19:09:27.810Z,32.67
2022-11-18T19:12:14.502Z,35.35
2022-11-18T19:14:46.314Z,35.42
2022-11-18T19:17:14.132Z,34.95
2022-11-18T19:20:01.434Z,34.33
2022-11-18T19:22:33.279Z,32.35
2022-11-18T19:25:01.874Z,40.15
2022-11-18T19:27:32.741Z,34.90
2022-11-18T19:30:01.321Z,40.15
2022-11-18T19:32:30.355Z,39.55
2022-11-18T19:34:58.576Z,35.90
2022-11-18T19:37:27.358Z,39.38
2022-11-18T19:39:59.313Z,35.70
2022-11-18T19:42:26.926Z,37.13
2022-11-18T19:44:55.098Z,40.55
2022-11-18T19:47:23.266Z,40.13
2022-11-18T19:49:51.459Z,46.33
2022-11-18T19:52:19.015Z,40.72
2022-11-18T19:54:46.942Z,44.83
2022-11-18T19:57:14.827Z,45.47
2022-11-18T19:59:46.348Z,44.10
2022-11-18T20:02:14.656Z,49.10
2022-11-18T20:05:04.433Z,50.05
2022-11-18T20:07:32.522Z,53.10
2022-11-18T20:10:00.412Z,50.78
2022-11-18T20:12:29.204Z,55.00
2022-11-18T20:14:58.350Z,48.63
2022-11-18T20:17:28.719Z,51.25
2022-11-18T20:19:56.612Z,50.03
2022-11-18T20:22:25.840Z,52.33
2022-11-18T20:24:54.632Z,54.72
2022-11-18T20:27:22.751Z,56.75
2022-11-18T20:29:50.668Z,53.60
2022-11-18T20:32:19.214Z,56.03
2022-11-18T20:34:47.469Z,56.50
2022-11-18T20:37:17.754Z,55.88
2022-11-18T20:39:45.649Z,57.00
2022-11-18T20:42:31.630Z,55.72
2022-11-18T20:45:02.211Z,58.05
2022-11-18T20:47:29.711Z,55.60
2022-11-18T20:49:57.624Z,55.80
2022-11-18T20:52:25.158Z,52.42
2022-11-18T20:54:52.687Z,49.97
2022-11-18T20:57:20.259Z,55.15
2022-11-18T20:59:48.030Z,57.70
2022-11-18T21:02:15.379Z,59.08
2022-11-18T21:04:42.942Z,54.75
2022-11-18T21:07:10.509Z,61.28
2022-11-18T21:09:38.271Z,53.85
2022-11-18T21:12:05.783Z,61.15
2022-11-18T21:14:33.262Z,56.45
2022-11-18T21:17:03.606Z,56.50
2022-11-18T21:19:34.833Z,51.20
2022-11-18T21:22:02.351Z,48.03
2022-11-18T21:24:32.467Z,51.50
2022-11-18T21:27:00.685Z,55.50
2022-11-18T21:29:30.912Z,52.00
2022-11-18T21:32:01.458Z,52.72
2022-11-18T21:34:29.332Z,52.47
2022-11-18T21:36:56.961Z,54.80
2022-11-18T21:39:27.601Z,47.88
2022-11-18T21:41:57.392Z,52.38
2022-11-18T21:44:28.578Z,57.53
2022-11-18T21:46:56.334Z,55.05
2022-11-18T21:49:23.990Z,52.85
2022-11-18T21:51:53.303Z,58.53
2022-11-18T21:54:20.709Z,54.75
2022-11-18T21:56:47.806Z,54.78
2022-11-18T21:59:20.928Z,54.38
2022-11-18T22:01:48.921Z,52.88
2022-11-18T22:04:36.303Z,49.90
2022-11-18T22:07:03.661Z,53.33
2022-11-18T22:09:36.186Z,48.67
2022-11-18T22:12:05.062Z,57.13
2022-11-18T22:14:32.393Z,61.97
2022-11-18T22:16:59.449Z,62.38
2022-11-18T22:19:26.909Z,55.88
2022-11-18T22:21:56.525Z,54.22
2022-11-18T22:24:24.215Z,56.22
2022-11-18T22:26:53.899Z,56.20
2022-11-18T22:29:21.606Z,52.58
2022-11-18T22:31:49.591Z,50.72
2022-11-18T22:34:16.832Z,51.92
2022-11-18T22:36:43.850Z,47.50
2022-11-18T22:39:11.147Z,51.17
2022-11-18T22:41:56.786Z,47.10
2022-11-18T22:44:24.144Z,50.35
2022-11-18T22:46:52.581Z,50.22
2022-11-18T22:49:20.014Z,44.97
2022-11-18T22:51:47.299Z,46.22
2022-11-18T22:57:02.133Z,50.03
2022-11-18T22:59:29.636Z,54.17
2022-11-18T23:01:56.587Z,48.78
2022-11-18T23:04:26.769Z,49.83
2022-11-18T23:06:53.925Z,52.35
2022-11-18T23:09:21.746Z,45.83
2022-11-18T23:12:09.629Z,50.28
2022-11-18T23:14:37.300Z,34.60
2022-11-18T23:17:04.855Z,51.33
2022-11-18T23:19:32.562Z,54.38
2022-11-18T23:22:01.798Z,50.53
2022-11-18T23:24:29.141Z,55.75
2022-11-18T23:26:56.260Z,57.13
2022-11-18T23:29:23.616Z,51.28
2022-11-18T23:31:50.562Z,52.20
2022-11-18T23:34:17.916Z,50.08
2022-11-18T23:36:44.975Z,51.55
2022-11-18T23:39:13.160Z,52.28
2022-11-18T23:41:40.657Z,53.05
2022-11-18T23:44:10.140Z,55.25
2022-11-18T23:46:39.430Z,59.28
2022-11-18T23:49:10.004Z,56.75
2022-11-18T23:51:37.018Z,55.50
2022-11-18T23:54:06.761Z,58.90
2022-11-18T23:56:37.840Z,57.33
2022-11-18T23:59:06.725Z,59.08
